Lake Clarke, Florida
Current Conditions -  °F | °C
As of 1:53 AM on Wednesday 22 Oct 2014 (Local Time) from KPBI Reporting Station
Broken Clouds Broken Clouds  
Wind Chill: 70°   Ceiling: 16000
Heat Index: 70°   Visibility: 10mi
Dew Point: 70°   Wind: 3mph
Humidity: 100%   Direction: 340°NNW
Pressure: 29.93"   Gusts: NA
Location:  26.6662°N, 80.0908°W
Report Text: KPBI 220553Z 34003KT 10SM BKN160 BKN250 21/21 A2993 RMK AO2 SLP133 T02110211 10222 20211 56010
Loading
Personal Weather Stations






























Interactive Weather Map
Tropical Storm Tracking
New forecast layout! Learn more

10-Day Weather Forecast

Advertisements
Track Severe Weather on mobile